Time;durP1;ratioP1;P1;durP2;ratioP2;P2;SDS_P1;SDS_P2;PMS_P1;PMS_P2;Temp;Humidity;BMP_temperature;BMP_pressure;BME280_temperature;BME280_humidity;BME280_pressure;Samples;Min_cycle;Max_cycle;Signal;HPM_P1;HPM_P2
2022/11/18 00:00:22;;;;;;;;;4.00;4.00;;;;;11.98;100.00;99385.28;5079855;28;45506;-83
2022/11/18 00:02:48;;;;;;;;;5.00;5.00;;;;;12.01;100.00;99405.34;5079937;28;45388;-83
2022/11/18 00:05:13;;;;;;;;;5.00;5.00;;;;;12.01;100.00;99402.69;5079685;28;48951;-82
2022/11/18 00:07:39;;;;;;;;;5.00;4.00;;;;;11.91;100.00;99397.84;5061400;28;46970;-82
2022/11/18 00:10:04;;;;;;;;;4.00;4.00;;;;;11.93;100.00;99409.09;5079694;28;45355;-81
2022/11/18 00:15:13;;;;;;;;;5.33;4.33;;;;;11.42;100.00;99352.31;5079718;28;45427;-83
2022/11/18 00:17:39;;;;;;;;;5.00;5.00;;;;;11.95;100.00;99422.19;5079604;28;45560;-82
2022/11/18 00:20:04;;;;;;;;;5.67;4.67;;;;;11.85;100.00;99404.03;5079550;28;45360;-82
2022/11/18 00:22:30;;;;;;;;;4.00;4.00;;;;;11.94;100.00;99429.34;5081732;28;45373;-82
2022/11/18 00:24:55;;;;;;;;;2.67;2.67;;;;;11.91;100.00;99434.31;5065140;28;45338;-83
2022/11/18 00:27:20;;;;;;;;;5.67;3.00;;;;;11.93;100.00;99441.03;5083101;28;45276;-83
2022/11/18 00:29:48;;;;;;;;;3.00;3.00;;;;;11.93;100.00;99437.56;5082233;28;45503;-82
2022/11/18 00:32:14;;;;;;;;;4.00;4.00;;;;;11.91;100.00;99436.97;5082188;28;45252;-82
2022/11/18 00:34:41;;;;;;;;;3.00;3.00;;;;;11.95;100.00;99446.16;5082649;28;45471;-82
2022/11/18 00:37:06;;;;;;;;;4.00;4.00;;;;;11.95;100.00;99446.16;5081985;28;45379;-83
2022/11/18 00:39:32;;;;;;;;;3.33;3.33;;;;;12.00;100.00;99455.13;5082075;28;46123;-83
2022/11/18 00:44:41;;;;;;;;;2.67;2.33;;;;;12.00;100.00;99465.78;5082001;28;45343;-82
2022/11/18 00:47:06;;;;;;;;;3.67;3.67;;;;;11.99;100.00;99469.47;5081854;28;45451;-82
2022/11/18 00:49:32;;;;;;;;;2.67;2.67;;;;;12.06;100.00;99482.75;5063389;28;47272;-82
2022/11/18 00:51:57;;;;;;;;;2.00;2.00;;;;;12.08;100.00;99490.53;5081871;28;45406;-82
2022/11/18 00:54:23;;;;;;;;;3.67;3.67;;;;;12.08;100.00;99485.22;5082598;28;45378;-82
2022/11/18 00:56:48;;;;;;;;;4.00;4.00;;;;;12.03;100.00;99474.38;5081946;28;45370;-83
2022/11/18 00:59:14;;;;;;;;;3.67;2.00;;;;;12.11;100.00;99492.78;5081389;28;45377;-83
2022/11/18 01:01:39;;;;;;;;;2.00;2.00;;;;;12.11;100.00;99496.28;5081307;28;45391;-83
2022/11/18 01:04:05;;;;;;;;;1.67;1.67;;;;;12.07;100.00;99492.41;5081866;28;45379;-83
2022/11/18 01:06:30;;;;;;;;;3.00;3.00;;;;;12.12;100.00;99505.06;5081535;28;45247;-83
2022/11/18 01:08:55;;;;;;;;;3.00;3.00;;;;;12.06;100.00;99492.59;5081338;28;46249;-82
2022/11/18 01:14:04;;;;;;;;;2.00;2.00;;;;;12.08;100.00;99490.53;5081344;28;45370;-83
2022/11/18 01:16:30;;;;;;;;;3.00;3.00;;;;;12.12;100.00;99502.38;5063109;28;46127;-83
2022/11/18 01:18:56;;;;;;;;;3.00;3.00;;;;;12.11;100.00;99504.25;5062792;28;48263;-83
2022/11/18 01:21:21;;;;;;;;;1.33;1.33;;;;;12.10;100.00;99502.59;5081277;28;45247;-83
2022/11/18 01:23:47;;;;;;;;;1.00;1.00;;;;;12.07;100.00;99508.38;5081352;28;45232;-82
2022/11/18 01:26:16;;;;;;;;;3.00;2.00;;;;;12.01;100.00;99501.22;5081086;28;45306;-82
2022/11/18 01:28:41;;;;;;;;;2.67;2.67;;;;;12.09;100.00;99516.16;5040449;28;1141515;-82
2022/11/18 01:31:12;;;;;;;;;3.00;2.00;;;;;12.04;100.00;99513.28;5082091;28;45338;-82
2022/11/18 01:33:38;;;;;;;;;1.00;1.00;;;;;12.03;100.00;99509.78;5082049;28;45291;-82
2022/11/18 01:36:13;;;;;;;;;2.00;2.00;;;;;11.85;100.00;99498.03;5081896;28;45282;-82
2022/11/18 01:38:38;;;;;;;;;3.00;3.00;;;;;11.94;100.00;99516.41;5063458;28;47431;-83
2022/11/18 01:41:03;;;;;;;;;1.00;1.00;;;;;11.92;100.00;99521.97;5081911;28;45161;-83
2022/11/18 01:43:53;;;;;;;;;1.33;1.33;;;;;11.91;100.00;99533.63;5082106;28;45611;-83
2022/11/18 01:46:20;;;;;;;;;3.00;3.00;;;;;11.87;100.00;99532.41;5081900;28;45368;-83
2022/11/18 01:48:50;;;;;;;;;2.00;1.00;;;;;11.81;100.00;99534.09;5081854;28;45253;-83
2022/11/18 01:51:21;;;;;;;;;2.00;1.67;;;;;11.71;100.00;99520.41;5081688;28;45402;-83
2022/11/18 01:53:52;;;;;;;;;1.00;1.00;;;;;11.67;100.00;99528.00;5063583;28;45257;-83
2022/11/18 01:56:22;;;;;;;;;1.67;1.67;;;;;11.65;100.00;99538.06;5081665;28;45375;-83
2022/11/18 01:59:02;;;;;;;;;2.00;2.00;;;;;11.60;100.00;99536.03;5081418;28;46144;-83
2022/11/18 02:01:27;;;;;;;;;1.67;1.67;;;;;11.57;100.00;99540.94;5051384;28;45334;-83
2022/11/18 02:03:53;;;;;;;;;2.33;1.33;;;;;11.50;100.00;99540.97;5061573;28;45319;-82
2022/11/18 02:06:19;;;;;;;;;2.33;1.00;;;;;11.42;100.00;99519.91;5061245;28;45437;-83
2022/11/18 02:08:45;;;;;;;;;1.67;1.33;;;;;11.42;100.00;99535.88;5043150;28;48142;-83
2022/11/18 02:13:58;;;;;;;;;3.00;3.00;;;;;11.35;100.00;99547.34;5061061;28;45249;-83
2022/11/18 02:16:41;;;;;;;;;1.00;1.00;;;;;11.37;100.00;99555.09;5061028;28;45887;-83
2022/11/18 02:19:37;;;;;;;;;2.00;1.00;;;;;11.31;100.00;99553.31;5042683;28;46558;-83
2022/11/18 02:22:29;;;;;;;;;1.67;1.67;;;;;11.30;100.00;99559.63;5060833;28;45243;-83
2022/11/18 02:25:17;;;;;;;;;1.00;1.00;;;;;11.28;100.00;99565.16;5061289;28;45457;-83
2022/11/18 02:28:24;;;;;;;;;2.00;2.00;;;;;11.22;100.00;99572.13;5042693;28;47378;-82
2022/11/18 02:30:58;;;;;;;;;2.00;2.00;;;;;11.11;100.00;99559.47;5060827;28;45362;-83
2022/11/18 02:33:39;;;;;;;;;2.00;2.00;;;;;11.01;100.00;99551.09;5042667;28;45288;-82
2022/11/18 02:36:20;;;;;;;;;2.00;2.00;;;;;11.09;100.00;99577.47;5060891;28;45308;-82
2022/11/18 02:38:56;;;;;;;;;3.00;3.00;;;;;10.98;100.00;99569.09;5042458;28;47213;-82
2022/11/18 02:41:28;;;;;;;;;2.00;2.00;;;;;10.98;100.00;99579.72;5060540;28;46233;-82
2022/11/18 02:44:01;;;;;;;;;1.67;1.67;;;;;10.98;100.00;99587.69;5059817;28;45351;-82
2022/11/18 02:46:31;;;;;;;;;3.00;2.33;;;;;10.84;100.00;99584.22;5060773;28;45229;-82
2022/11/18 02:48:59;;;;;;;;;2.00;2.00;;;;;10.92;100.00;99595.69;5060579;28;45352;-83
2022/11/18 02:51:29;;;;;;;;;3.00;3.00;;;;;10.90;100.00;99593.25;5060397;28;45519;-82
2022/11/18 02:53:59;;;;;;;;;2.00;2.00;;;;;10.81;100.00;99578.50;5060451;28;45498;-83
2022/11/18 02:56:26;;;;;;;;;2.67;2.67;;;;;10.76;100.00;99580.94;5060502;28;45435;-82
2022/11/18 02:58:51;;;;;;;;;2.00;2.00;;;;;10.70;100.00;99585.25;5060233;28;45332;-82
2022/11/18 03:01:26;;;;;;;;;2.00;2.00;;;;;10.71;100.00;99600.16;5070054;28;45292;-82
2022/11/18 03:03:52;;;;;;;;;2.33;2.33;;;;;10.71;100.00;99613.44;5080814;28;45298;-82
2022/11/18 03:06:32;;;;;;;;;4.00;2.67;;;;;10.69;100.00;99624.28;5070065;28;45567;-83
2022/11/18 03:09:07;;;;;;;;;3.00;3.00;;;;;10.68;100.00;99617.34;5041898;28;47255;-82
2022/11/18 03:11:46;;;;;;;;;3.33;2.33;;;;;10.55;100.00;99612.00;5060216;28;46352;-83
2022/11/18 03:14:39;;;;;;;;;2.00;2.00;;;;;10.61;100.00;99629.78;5041970;28;45808;-82
2022/11/18 03:17:20;;;;;;;;;3.00;2.00;;;;;10.62;100.00;99634.06;5049009;28;45562;-81
2022/11/18 03:20:14;;;;;;;;;3.00;2.00;;;;;10.64;100.00;99634.72;5060039;28;45481;-82
2022/11/18 03:22:51;;;;;;;;;2.00;2.00;;;;;10.63;100.00;99632.25;5059767;28;45416;-82
2022/11/18 03:25:28;;;;;;;;;3.00;3.00;;;;;10.61;100.00;99629.78;5059936;28;45393;-82
2022/11/18 03:28:01;;;;;;;;;2.00;2.00;;;;;10.59;100.00;99629.16;5041693;28;45323;-82
2022/11/18 03:30:30;;;;;;;;;2.67;2.67;;;;;10.54;100.00;99631.63;5060779;28;46131;-82
2022/11/18 03:33:01;;;;;;;;;4.67;2.67;;;;;10.50;100.00;99625.88;5080061;28;45212;-82
2022/11/18 03:35:31;;;;;;;;;2.00;2.00;;;;;10.42;100.00;99624.19;5080218;28;45418;-82
2022/11/18 03:38:03;;;;;;;;;2.00;2.00;;;;;10.49;100.00;99640.19;5079943;28;45297;-82
2022/11/18 03:40:31;;;;;;;;;2.00;2.00;;;;;10.39;100.00;99629.09;5061532;28;47480;-82
2022/11/18 03:43:08;;;;;;;;;2.67;2.67;;;;;10.37;100.00;99626.66;5079652;28;45288;-82
2022/11/18 03:45:41;;;;;;;;;2.67;2.67;;;;;10.42;100.00;99645.44;5079871;28;45353;-83
2022/11/18 03:48:12;;;;;;;;;0.33;0.33;;;;;10.38;100.00;99646.88;5080022;28;45219;-84
2022/11/18 03:50:51;;;;;;;;;2.00;2.00;;;;;10.30;100.00;99639.09;5061338;28;48569;-82
2022/11/18 03:53:19;;;;;;;;;1.00;1.00;;;;;10.28;100.00;99649.09;5079554;28;45287;-83
2022/11/18 03:55:50;;;;;;;;;2.00;2.00;;;;;10.17;100.00;99631.88;5078389;28;45379;-82
2022/11/18 03:58:41;;;;;;;;;2.67;2.67;;;;;10.29;100.00;99659.50;5079063;28;45288;-82
2022/11/18 04:01:38;;;;;;;;;2.00;2.00;;;;;10.23;100.00;99662.94;5088195;27;45536;-82
2022/11/18 04:04:03;;;;;;;;;1.00;1.00;;;;;10.23;100.00;99668.25;5099638;27;45374;-83
2022/11/18 04:06:37;;;;;;;;;4.00;3.00;;;;;10.17;100.00;99655.78;5098896;27;45457;-83
2022/11/18 04:09:10;;;;;;;;;1.33;1.33;;;;;10.25;100.00;99668.91;5099971;27;45378;-83
2022/11/18 04:12:02;;;;;;;;;1.67;1.67;;;;;10.19;100.00;99664.38;5099953;27;45421;-83
2022/11/18 04:14:30;;;;;;;;;1.67;1.67;;;;;10.13;100.00;99681.91;5099944;27;45331;-83
2022/11/18 04:16:56;;;;;;;;;1.00;1.00;;;;;10.17;100.00;99692.94;5100022;27;45400;-82
2022/11/18 04:19:21;;;;;;;;;2.67;1.00;;;;;10.16;100.00;99702.78;5100000;27;45391;-83
2022/11/18 04:21:48;;;;;;;;;1.00;1.00;;;;;10.17;100.00;99706.22;5100037;27;45444;-83
2022/11/18 04:24:13;;;;;;;;;1.00;1.00;;;;;10.15;100.00;99711.72;5099818;27;45412;-83
2022/11/18 04:26:39;;;;;;;;;2.00;2.00;;;;;10.15;100.00;99706.41;5081416;27;45372;-83
2022/11/18 04:29:04;;;;;;;;;2.00;2.00;;;;;10.02;100.00;99695.72;5081287;27;45353;-83
2022/11/18 04:31:29;;;;;;;;;2.00;2.00;;;;;10.10;100.00;99707.03;5081394;27;46165;-83
2022/11/18 04:33:55;;;;;;;;;3.33;2.00;;;;;10.13;100.00;99712.94;5081293;27;47484;-83
2022/11/18 04:36:20;;;;;;;;;1.00;1.00;;;;;10.03;100.00;99708.00;5099800;27;45249;-83
2022/11/18 04:38:45;;;;;;;;;3.00;3.00;;;;;10.06;100.00;99716.38;5099789;27;45675;-82
2022/11/18 04:41:11;;;;;;;;;1.00;1.00;;;;;10.01;100.00;99712.69;5099536;27;45532;-83
2022/11/18 04:43:36;;;;;;;;;1.00;1.00;;;;;10.05;100.00;99720.06;5081278;27;45278;-83
2022/11/18 04:46:01;;;;;;;;;1.00;1.00;;;;;10.07;100.00;99725.19;5099671;27;45287;-82
2022/11/18 04:48:27;;;;;;;;;3.00;2.00;;;;;10.02;100.00;99723.09;5081377;27;45362;-83
2022/11/18 04:50:52;;;;;;;;;1.33;1.33;;;;;9.97;100.00;99717.59;5099696;27;45466;-82
2022/11/18 04:53:17;;;;;;;;;2.00;2.00;;;;;10.08;100.00;99737.44;5080954;27;46950;-83
2022/11/18 04:55:42;;;;;;;;;1.00;1.00;;;;;10.00;100.00;99726.97;5099422;27;45216;-83
2022/11/18 04:58:08;;;;;;;;;1.00;1.00;;;;;10.06;100.00;99739.47;5099384;27;45353;-83
2022/11/18 05:00:33;;;;;;;;;3.00;2.00;;;;;10.07;100.00;99735.81;5095308;27;45304;-82
2022/11/18 05:02:58;;;;;;;;;1.00;1.00;;;;;10.02;100.00;99732.91;5060571;28;47962;-82
2022/11/18 05:05:24;;;;;;;;;1.67;1.67;;;;;10.06;100.00;99742.94;5079076;28;45360;-83
2022/11/18 05:07:50;;;;;;;;;3.00;3.00;;;;;10.06;100.00;99742.94;5061719;28;45343;-82
2022/11/18 05:10:15;;;;;;;;;2.00;1.00;;;;;10.10;100.00;99740.72;5082359;28;45492;-83
2022/11/18 05:12:51;;;;;;;;;2.00;1.33;;;;;10.12;100.00;99741.34;5063728;28;47046;-83
2022/11/18 05:15:18;;;;;;;;;2.67;2.00;;;;;10.28;100.00;99750.00;5082191;28;45339;-83
2022/11/18 05:17:44;;;;;;;;;3.33;2.67;;;;;10.19;100.00;99734.25;5064013;28;45400;-83
2022/11/18 05:20:10;;;;;;;;;1.00;1.00;;;;;10.33;100.00;99763.53;5082301;28;45348;-83
2022/11/18 05:22:35;;;;;;;;;0.67;0.33;;;;;10.19;100.00;99734.25;5082236;28;45289;-83
2022/11/18 05:25:01;;;;;;;;;2.00;2.00;;;;;10.16;100.00;99747.06;5063671;28;45290;-83
2022/11/18 05:27:26;;;;;;;;;1.67;1.67;;;;;10.22;100.00;99748.97;5082156;28;45324;-83
2022/11/18 05:29:52;;;;;;;;;1.33;1.33;;;;;10.28;100.00;99760.63;5063744;28;47243;-83
2022/11/18 05:32:17;;;;;;;;;3.33;2.00;;;;;10.18;100.00;99756.47;5081996;28;45212;-83
2022/11/18 05:34:43;;;;;;;;;2.00;2.00;;;;;10.23;100.00;99770.00;5082151;28;45419;-83
2022/11/18 05:37:09;;;;;;;;;2.00;1.00;;;;;10.23;100.00;99763.88;5082070;28;45340;-83
2022/11/18 05:39:34;;;;;;;;;4.00;2.67;;;;;10.29;100.00;99779.03;5081823;28;45528;-83
2022/11/18 05:44:44;;;;;;;;;2.67;2.67;;;;;10.26;100.00;99779.41;5081830;28;45298;-83
2022/11/18 05:47:09;;;;;;;;;2.00;2.00;;;;;10.22;100.00;99775.50;5063579;28;45342;-83
2022/11/18 05:49:35;;;;;;;;;1.67;1.67;;;;;10.28;100.00;99789.84;5081888;28;45283;-81
2022/11/18 05:52:00;;;;;;;;;3.33;3.33;;;;;10.22;100.00;99789.63;5081675;28;45964;-83
2022/11/18 05:54:26;;;;;;;;;2.33;1.67;;;;;10.23;100.00;99788.59;5081653;28;45387;-84
2022/11/18 05:56:51;;;;;;;;;2.00;2.00;;;;;10.18;100.00;99792.84;5063564;28;45332;-83
2022/11/18 05:59:17;;;;;;;;;3.00;3.00;;;;;10.18;100.00;99795.50;5081362;28;45294;-83
2022/11/18 06:01:59;;;;;;;;;4.00;2.00;;;;;10.23;100.00;99804.53;5073099;28;45366;-83
2022/11/18 06:04:30;;;;;;;;;2.67;2.00;;;;;10.21;100.00;99809.19;5081579;28;45339;-83
2022/11/18 06:07:17;;;;;;;;;3.00;2.33;;;;;10.22;100.00;99810.88;5063424;28;45305;-83
2022/11/18 06:09:46;;;;;;;;;2.00;2.00;;;;;10.13;100.00;99796.09;5081471;28;45399;-83
2022/11/18 06:12:16;;;;;;;;;2.67;2.00;;;;;10.09;100.00;99800.97;5081113;28;45346;-83
2022/11/18 06:14:52;;;;;;;;;3.33;3.00;;;;;10.08;100.00;99809.13;5063231;28;45317;-83
2022/11/18 06:17:25;;;;;;;;;2.00;2.00;;;;;10.04;100.00;99810.53;5081666;28;45847;-83
2022/11/18 06:19:51;;;;;;;;;3.00;1.00;;;;;10.14;100.00;99828.78;5080201;28;45228;-83
2022/11/18 06:22:17;;;;;;;;;3.00;1.67;;;;;9.98;100.00;99815.59;5081087;28;46297;-83
2022/11/18 06:24:43;;;;;;;;;3.00;3.00;;;;;10.07;100.00;99832.22;5081503;28;45292;-82
2022/11/18 06:27:08;;;;;;;;;3.00;3.00;;;;;10.02;100.00;99831.94;5081262;28;45281;-83
2022/11/18 06:29:34;;;;;;;;;3.00;2.67;;;;;10.04;100.00;99843.22;5081134;28;45430;-84
2022/11/18 06:31:59;;;;;;;;;3.33;3.33;;;;;10.01;100.00;99840.09;5062723;28;48097;-83
2022/11/18 06:34:24;;;;;;;;;1.00;1.00;;;;;9.90;100.00;99833.47;5081257;28;45198;-84
2022/11/18 06:36:50;;;;;;;;;4.00;2.00;;;;;10.00;100.00;99846.44;5063109;28;45517;-84
2022/11/18 06:39:15;;;;;;;;;4.33;4.00;;;;;9.89;100.00;99832.69;5080972;28;45466;-83
2022/11/18 06:41:40;;;;;;;;;5.00;4.00;;;;;9.92;100.00;99847.41;5080996;28;45563;-84
2022/11/18 06:44:06;;;;;;;;;5.33;3.33;;;;;9.90;100.00;99846.75;5062755;28;45348;-83
2022/11/18 06:49:15;;;;;;;;;9.33;7.00;;;;;10.00;100.00;99875.63;5080736;28;45360;-83
2022/11/18 06:51:41;;;;;;;;;7.00;7.00;;;;;9.83;100.00;99858.16;5080794;28;45349;-84
2022/11/18 06:54:06;;;;;;;;;4.33;4.33;;;;;9.91;100.00;99872.31;5080730;28;45316;-82
2022/11/18 06:56:33;;;;;;;;;5.00;4.33;;;;;9.85;100.00;99863.28;5080986;28;45315;-84
2022/11/18 06:58:58;;;;;;;;;9.50;9.50;;;;;9.96;100.00;99878.69;5062636;28;47033;-83
2022/11/18 07:01:26;;;;;;;;;9.00;8.00;;;;;9.82;100.00;99858.34;5061584;28;47249;-83
2022/11/18 07:03:52;;;;;;;;;9.67;9.00;;;;;9.79;100.00;99864.03;5080868;28;45230;-83
2022/11/18 07:06:21;;;;;;;;;5.00;4.67;;;;;9.89;100.00;99890.25;5080780;28;45214;-82
2022/11/18 07:08:47;;;;;;;;;6.33;5.67;;;;;9.80;100.00;99884.25;5063724;28;46142;-83
2022/11/18 07:11:15;;;;;;;;;5.00;5.00;;;;;9.88;100.00;99905.38;5082959;28;45648;-82
2022/11/18 07:13:41;;;;;;;;;6.00;5.00;;;;;9.77;100.00;99893.41;5081802;28;45280;-82
2022/11/18 07:16:14;;;;;;;;;4.00;3.00;;;;;9.82;100.00;99906.91;5062727;28;45322;-82
2022/11/18 07:18:41;;;;;;;;;4.67;4.67;;;;;9.76;100.00;99904.22;5077712;28;45402;-84
2022/11/18 07:21:12;;;;;;;;;3.00;3.00;;;;;9.78;100.00;99916.28;5069390;28;45298;-83
2022/11/18 07:23:38;;;;;;;;;3.00;3.00;;;;;9.72;100.00;99914.38;5062670;28;45331;-84
2022/11/18 07:26:04;;;;;;;;;4.33;3.00;;;;;9.62;100.00;99908.56;5061866;28;45323;-83
2022/11/18 07:28:30;;;;;;;;;7.00;5.00;;;;;9.66;100.00;99923.09;5062817;28;45647;-83
2022/11/18 07:31:02;;;;;;;;;4.33;4.00;;;;;9.73;100.00;99939.94;5092900;27;46299;-83
2022/11/18 07:33:28;;;;;;;;;3.00;3.00;;;;;9.76;100.00;99952.78;5104741;27;45343;-83
2022/11/18 07:35:53;;;;;;;;;5.33;3.67;;;;;9.71;100.00;99939.28;5082192;27;45381;-83
2022/11/18 07:38:19;;;;;;;;;5.00;5.00;;;;;9.73;100.00;99947.88;5064417;28;45830;-82
2022/11/18 07:40:44;;;;;;;;;6.67;3.67;;;;;9.73;100.00;99956.66;5080493;28;46093;-79
2022/11/18 07:43:09;;;;;;;;;5.00;5.00;;;;;9.75;100.00;99956.47;5079808;28;45318;-81
2022/11/18 07:45:35;;;;;;;;;15.00;10.00;;;;;9.77;100.00;99950.97;5080087;28;45318;-80
2022/11/18 07:48:00;;;;;;;;;22.00;22.00;;;;;9.82;100.00;99949.38;5061454;28;46287;-80
2022/11/18 07:50:26;;;;;;;;;21.33;18.33;;;;;9.84;100.00;99971.25;5077886;27;45312;-81
2022/11/18 07:52:54;;;;;;;;;12.33;11.00;;;;;10.06;100.00;99978.41;5079518;28;45319;-80
2022/11/18 07:55:19;;;;;;;;;8.33;7.00;;;;;9.92;100.00;99980.13;5070270;28;45345;-80
2022/11/18 07:57:45;;;;;;;;;7.33;7.00;;;;;9.95;100.00;99977.91;5058791;28;55935;-80
2022/11/18 08:00:10;;;;;;;;;9.67;8.33;;;;;10.06;100.00;99970.47;5059277;28;47130;-82
2022/11/18 08:02:35;;;;;;;;;6.33;6.33;;;;;10.01;100.00;99967.53;5059401;28;45395;-81
2022/11/18 08:05:01;;;;;;;;;10.00;7.00;;;;;10.08;100.00;99973.72;5059328;28;47225;-82
2022/11/18 08:07:26;;;;;;;;;8.33;7.00;;;;;10.01;100.00;99970.19;5059365;28;45430;-80
2022/11/18 08:09:51;;;;;;;;;9.00;9.00;;;;;10.00;100.00;99971.22;5075922;28;52232;-80
2022/11/18 08:12:17;;;;;;;;;9.33;8.00;;;;;9.99;100.00;99975.69;5079122;28;51278;-80
2022/11/18 08:14:42;;;;;;;;;9.00;7.33;;;;;10.05;100.00;99974.09;5079790;28;45346;-81
2022/11/18 08:17:07;;;;;;;;;8.67;7.33;;;;;10.07;100.00;99988.03;5060913;28;53510;-84
2022/11/18 08:19:34;;;;;;;;;8.33;8.33;;;;;10.01;100.00;99981.63;5079424;28;45294;-81
2022/11/18 08:22:00;;;;;;;;;11.33;11.33;;;;;10.01;100.00;99983.47;5079368;28;45502;-81
2022/11/18 08:24:25;;;;;;;;;9.33;7.33;;;;;9.98;100.00;99987.31;5079606;28;45277;-79
2022/11/18 08:26:50;;;;;;;;;11.00;10.00;;;;;10.08;100.00;100009.06;5060957;28;47361;-79
2022/11/18 08:29:15;;;;;;;;;13.00;12.67;;;;;10.12;100.00;99995.41;5079155;28;46073;-80
2022/11/18 08:31:41;;;;;;;;;7.00;7.00;;;;;10.09;100.00;99984.16;5079466;28;45287;-79
2022/11/18 08:34:06;;;;;;;;;8.00;6.33;;;;;10.25;100.00;100008.00;5079549;28;45260;-79
2022/11/18 08:36:35;;;;;;;;;7.67;7.00;;;;;10.27;100.00;100012.13;5074447;28;45277;-80
2022/11/18 08:39:03;;;;;;;;;7.00;7.00;;;;;10.39;100.00;100020.41;5079164;27;46165;-79
2022/11/18 08:41:33;;;;;;;;;8.67;7.67;;;;;10.48;100.00;100027.25;5060678;28;45619;-77
2022/11/18 08:43:59;;;;;;;;;8.67;7.33;;;;;10.54;100.00;100025.66;5064068;28;45227;-80
2022/11/18 08:46:24;;;;;;;;;1.00;1.00;;;;;10.56;100.00;100014.81;5082568;28;45329;-78
2022/11/18 08:48:50;;;;;;;;;8.00;7.33;;;;;10.69;100.00;100030.88;5064349;28;45935;-78
2022/11/18 08:51:15;;;;;;;;;8.00;6.00;;;;;10.74;100.00;100030.31;5082665;28;45253;-78
2022/11/18 08:53:41;;;;;;;;;5.33;5.33;;;;;10.81;100.00;100030.38;5082814;28;45343;-79
2022/11/18 08:56:10;;;;;;;;;7.00;7.00;;;;;10.86;100.00;100035.91;5082450;28;45512;-79
2022/11/18 08:58:35;;;;;;;;;7.33;7.33;;;;;10.85;100.00;100021.00;5082278;28;45716;-79
2022/11/18 09:01:05;;;;;;;;;5.67;5.67;;;;;10.91;100.00;100020.22;5074308;28;53951;-79
2022/11/18 09:03:30;;;;;;;;;6.33;6.33;;;;;11.04;100.00;100037.28;5060914;28;45311;-78
2022/11/18 09:06:05;;;;;;;;;4.00;4.00;;;;;11.13;100.00;100028.13;5062112;28;45405;-79
2022/11/18 09:08:30;;;;;;;;;6.33;6.00;;;;;11.17;100.00;100033.88;5070088;28;45347;-80
2022/11/18 09:10:55;;;;;;;;;5.67;4.00;;;;;11.21;100.00;100011.19;5080352;28;50138;-80
2022/11/18 09:13:21;;;;;;;;;7.67;7.67;;;;;11.38;100.00;100024.16;5063552;28;47413;-79
2022/11/18 09:15:46;;;;;;;;;9.00;7.00;;;;;11.36;100.00;100017.22;5079000;27;45536;-80
2022/11/18 09:18:11;;;;;;;;;6.33;6.00;;;;;11.39;100.00;100018.66;5078848;27;49195;-77
2022/11/18 09:20:36;;;;;;;;;7.67;7.00;;;;;11.47;100.00;100023.78;5069384;28;53184;-80
2022/11/18 09:23:02;;;;;;;;;8.00;8.00;;;;;11.18;100.00;99979.66;5079799;28;45781;-80
2022/11/18 09:25:27;;;;;;;;;9.00;9.00;;;;;11.38;100.00;100022.34;5079859;27;45483;-80
2022/11/18 09:27:54;;;;;;;;;10.33;9.33;;;;;11.38;100.00;100024.16;5080140;27;45433;-79
2022/11/18 09:30:22;;;;;;;;;6.00;5.00;;;;;11.38;100.00;100030.31;5089996;27;46319;-79
2022/11/18 09:32:49;;;;;;;;;7.33;7.33;;;;;11.43;100.00;100035.06;5061172;28;45371;-79
2022/11/18 09:35:14;;;;;;;;;5.67;5.67;;;;;11.38;100.00;100022.34;5056741;28;45831;-79
2022/11/18 09:37:39;;;;;;;;;8.00;7.00;;;;;11.58;100.00;100034.88;5081513;28;45870;-78
2022/11/18 09:40:05;;;;;;;;;6.33;6.33;;;;;11.51;100.00;100007.44;5093172;27;45358;-80
2022/11/18 09:42:31;;;;;;;;;9.33;7.33;;;;;11.70;100.00;100041.28;5102050;27;45384;-77
2022/11/18 09:45:16;;;;;;;;;8.00;8.00;;;;;11.80;100.00;100040.09;5069347;28;45964;-79
2022/11/18 09:47:42;;;;;;;;;6.33;6.33;;;;;11.78;100.00;100024.31;5080797;28;46401;-79
2022/11/18 09:50:19;;;;;;;;;8.33;8.00;;;;;11.92;100.00;100025.19;5081196;28;45280;-78
2022/11/18 09:53:03;;;;;;;;;8.67;6.67;;;;;11.98;100.00;100028.91;5081162;28;45333;-77
2022/11/18 09:55:28;;;;;;;;;5.00;4.00;;;;;12.02;100.00;100026.63;5080836;27;45295;-77
2022/11/18 09:57:56;;;;;;;;;7.33;5.00;;;;;12.23;100.00;100047.00;5076836;28;48406;-79
2022/11/18 10:00:25;;;;;;;;;7.00;5.00;;;;;12.25;100.00;100039.63;5078986;28;45343;-77
2022/11/18 10:03:08;;;;;;;;;4.67;4.00;;;;;12.31;100.00;100048.66;5067330;28;45226;-79
2022/11/18 10:05:52;;;;;;;;;4.67;4.67;;;;;12.31;100.00;100059.31;5069697;28;45342;-78
2022/11/18 10:08:21;;;;;;;;;6.67;5.67;;;;;12.25;100.00;100051.09;5052332;28;47647;-77
2022/11/18 10:10:55;;;;;;;;;7.00;6.00;;;;;12.24;100.00;100048.63;5061196;28;45451;-78
2022/11/18 10:13:44;;;;;;;;;5.00;5.00;;;;;12.36;100.00;100059.50;5066218;28;45304;-78
2022/11/18 10:16:28;;;;;;;;;5.33;5.33;;;;;12.49;100.00;100075.53;5081427;28;45323;-79
2022/11/18 10:19:23;;;;;;;;;4.00;4.00;;;;;12.57;100.00;100068.38;5081237;28;45327;-78
2022/11/18 10:21:54;;;;;;;;;6.67;6.67;;;;;12.64;100.00;100077.19;5070210;28;45269;-79
2022/11/18 10:24:31;;;;;;;;;6.67;5.67;;;;;12.68;100.00;100081.09;5070493;28;45274;-79
2022/11/18 10:26:59;;;;;;;;;6.00;4.67;;;;;12.73;100.00;100070.66;5060558;28;45330;-79
2022/11/18 10:29:25;;;;;;;;;5.33;5.00;;;;;12.74;100.00;100072.28;5060132;28;46221;-78
2022/11/18 10:32:06;;;;;;;;;5.00;4.00;;;;;12.64;100.00;100055.88;5060844;28;45329;-80
2022/11/18 10:34:34;;;;;;;;;5.67;5.67;;;;;12.68;100.00;100059.75;5060733;28;45320;-78
2022/11/18 10:37:06;;;;;;;;;4.00;3.00;;;;;12.74;100.00;100077.59;5042252;28;46225;-79
2022/11/18 10:39:32;;;;;;;;;4.00;4.00;;;;;12.71;100.00;100054.03;5060435;28;45415;-79
2022/11/18 10:42:04;;;;;;;;;5.00;4.00;;;;;12.75;100.00;100065.06;5060472;28;45406;-78
2022/11/18 10:44:37;;;;;;;;;6.00;4.67;;;;;12.85;100.00;100078.03;5060781;28;45353;-80
2022/11/18 10:47:29;;;;;;;;;4.00;4.00;;;;;12.91;100.00;100071.88;5060523;28;45472;-78
2022/11/18 10:50:00;;;;;;;;;7.00;4.00;;;;;12.96;100.00;100081.91;5069754;27;46466;-80
2022/11/18 10:52:27;;;;;;;;;6.33;6.33;;;;;12.95;100.00;100077.59;5084220;27;45365;-80
2022/11/18 10:55:19;;;;;;;;;4.33;3.33;;;;;12.98;100.00;100079.84;5078603;27;45306;-78
2022/11/18 10:58:09;;;;;;;;;4.33;4.33;;;;;13.02;100.00;100075.72;5092154;27;45366;-78
2022/11/18 11:00:42;;;;;;;;;4.67;3.33;;;;;13.11;100.00;100079.84;5056872;27;47537;-80
2022/11/18 11:03:19;;;;;;;;;3.67;3.67;;;;;13.09;100.00;100070.41;5088428;27;45354;-80
2022/11/18 11:05:45;;;;;;;;;4.67;4.00;;;;;13.25;100.00;100072.63;5100135;27;45303;-78
2022/11/18 11:08:22;;;;;;;;;5.33;3.00;;;;;13.43;100.00;100081.00;5098479;27;45416;-79
2022/11/18 11:10:56;;;;;;;;;3.33;2.67;;;;;13.26;100.00;100063.59;5062073;28;48310;-81
2022/11/18 11:13:25;;;;;;;;;2.33;2.33;;;;;13.52;100.00;100070.97;5091541;27;45401;-79
2022/11/18 11:15:55;;;;;;;;;3.67;2.33;;;;;13.60;100.00;100071.56;5080922;27;45684;-80
2022/11/18 11:18:42;;;;;;;;;5.33;5.00;;;;;13.58;100.00;100078.13;5080282;27;45542;-81
2022/11/18 11:21:21;;;;;;;;;4.33;3.00;;;;;13.60;100.00;100076.06;5080012;27;45352;-79
2022/11/18 11:23:46;;;;;;;;;4.67;3.00;;;;;13.56;100.00;100075.66;5059002;28;45396;-78
2022/11/18 11:26:24;;;;;;;;;3.67;2.67;;;;;13.49;100.00;100073.03;5088239;27;45362;-79
2022/11/18 11:29:18;;;;;;;;;4.33;3.00;;;;;13.49;100.00;100078.34;5078085;27;47547;-78
2022/11/18 11:31:52;;;;;;;;;3.00;3.00;;;;;13.48;100.00;100070.53;5097605;27;45365;-79
2022/11/18 11:34:30;;;;;;;;;4.67;3.00;;;;;13.54;100.00;100075.06;5082828;27;45507;-80
2022/11/18 11:36:58;;;;;;;;;4.33;4.00;;;;;13.56;100.00;100072.19;5078110;27;45488;-80
2022/11/18 11:39:44;;;;;;;;;4.00;3.00;;;;;13.54;100.00;100060.88;5096435;27;45588;-78
2022/11/18 11:42:42;;;;;;;;;3.33;2.33;;;;;13.59;100.00;100075.22;5069205;27;48274;-79
2022/11/18 11:45:46;;;;;;;;;2.00;2.00;;;;;13.45;100.00;100052.25;5085563;27;46109;-80
2022/11/18 11:48:22;;;;;;;;;3.67;3.67;;;;;13.59;100.00;100074.44;5091163;27;45458;-82
2022/11/18 11:50:58;;;;;;;;;3.00;3.00;;;;;13.61;100.00;100075.03;5083093;27;45254;-80
2022/11/18 11:53:29;;;;;;;;;4.00;3.00;;;;;13.53;100.00;100078.75;5079745;27;45402;-78